createdAt,value
2018-11-10T00:01:36.426Z,14.13
2018-11-10T00:04:08.444Z,14.20
2018-11-10T00:06:40.551Z,14.23
2018-11-10T00:09:12.500Z,14.55
2018-11-10T00:11:44.506Z,14.75
2018-11-10T00:14:16.524Z,15.63
2018-11-10T00:16:48.517Z,14.95
2018-11-10T00:19:20.482Z,15.03
2018-11-10T00:21:52.447Z,17.95
2018-11-10T00:24:24.451Z,14.45
2018-11-10T00:26:56.377Z,15.20
2018-11-10T00:29:28.346Z,16.12
2018-11-10T00:32:00.332Z,15.28
2018-11-10T00:34:32.306Z,17.50
2018-11-10T00:37:04.415Z,16.48
2018-11-10T00:39:36.488Z,16.05
2018-11-10T00:42:08.464Z,15.72
2018-11-10T00:44:40.505Z,16.85
2018-11-10T00:47:12.503Z,17.07
2018-11-10T00:49:44.437Z,16.15
2018-11-10T00:52:16.458Z,16.35
2018-11-10T00:54:48.414Z,15.78
2018-11-10T00:57:20.355Z,16.60
2018-11-10T00:59:52.255Z,15.95
2018-11-10T01:02:24.216Z,15.58
2018-11-10T01:04:56.259Z,15.83
2018-11-10T01:07:28.581Z,16.80
2018-11-10T01:10:00.562Z,16.45
2018-11-10T01:12:32.494Z,16.20
2018-11-10T01:15:05.447Z,17.07
2018-11-10T01:17:37.480Z,17.87
2018-11-10T01:20:10.454Z,16.85
2018-11-10T01:22:42.414Z,16.40
2018-11-10T01:25:14.582Z,15.00
2018-11-10T01:27:46.534Z,16.27
2018-11-10T01:30:18.477Z,14.40
2018-11-10T01:32:50.371Z,15.70
2018-11-10T01:35:22.323Z,14.83
2018-11-10T01:37:54.324Z,14.80
2018-11-10T01:40:26.203Z,15.95
2018-11-10T01:42:58.169Z,14.83
2018-11-10T01:45:30.081Z,15.90
2018-11-10T01:48:02.024Z,14.73
2018-11-10T01:50:33.995Z,16.12
2018-11-10T01:53:05.938Z,14.53
2018-11-10T01:55:37.890Z,15.43
2018-11-10T01:58:09.810Z,16.17
2018-11-10T02:00:41.814Z,14.60
2018-11-10T02:03:13.754Z,14.78
2018-11-10T02:05:45.654Z,14.07
2018-11-10T02:08:17.605Z,14.75
2018-11-10T02:10:49.618Z,14.60
2018-11-10T02:13:21.537Z,16.02
2018-11-10T02:15:53.467Z,14.60
2018-11-10T02:18:25.442Z,14.33
2018-11-10T02:20:57.370Z,16.15
2018-11-10T02:23:29.325Z,13.45
2018-11-10T02:26:01.257Z,15.18
2018-11-10T02:28:33.238Z,15.18
2018-11-10T02:31:05.223Z,14.10
2018-11-10T02:33:37.128Z,14.98
2018-11-10T02:36:09.066Z,14.25
2018-11-10T02:38:41.093Z,12.60
2018-11-10T02:41:12.990Z,14.95
2018-11-10T02:43:44.945Z,13.70
2018-11-10T02:46:16.890Z,14.20
2018-11-10T02:48:48.849Z,15.25
2018-11-10T02:51:20.754Z,13.15
2018-11-10T02:53:52.664Z,15.30
2018-11-10T02:56:24.628Z,13.83
2018-11-10T02:58:56.557Z,13.65
2018-11-10T03:01:28.568Z,15.13
2018-11-10T03:04:00.469Z,13.18
2018-11-10T03:06:32.390Z,15.30
2018-11-10T03:09:05.616Z,12.95
2018-11-10T03:11:38.224Z,12.68
2018-11-10T03:14:10.136Z,13.00
2018-11-10T03:16:42.073Z,11.90
2018-11-10T03:19:14.013Z,13.32
2018-11-10T03:21:45.983Z,13.43
2018-11-10T03:24:17.962Z,12.63
2018-11-10T03:26:49.902Z,13.05
2018-11-10T03:29:21.828Z,13.08
2018-11-10T03:31:53.789Z,12.95
2018-11-10T03:34:25.713Z,13.38
2018-11-10T03:36:57.651Z,11.97
2018-11-10T03:39:29.607Z,13.35
2018-11-10T03:42:01.559Z,12.75
2018-11-10T03:44:33.533Z,11.15
2018-11-10T03:47:05.426Z,11.80
2018-11-10T03:49:37.414Z,11.65
2018-11-10T03:52:09.349Z,11.30
2018-11-10T03:54:41.279Z,10.95
2018-11-10T03:57:13.196Z,10.90
2018-11-10T03:59:45.145Z,12.10
2018-11-10T04:02:17.036Z,11.38
2018-11-10T04:04:48.978Z,11.25
2018-11-10T04:07:20.892Z,10.08
2018-11-10T04:09:52.898Z,11.12
2018-11-10T04:12:24.881Z,11.20
2018-11-10T04:14:56.791Z,11.80
2018-11-10T04:17:28.749Z,11.75
2018-11-10T04:20:00.678Z,13.08
2018-11-10T04:22:34.631Z,10.63
2018-11-10T04:25:07.417Z,12.70
2018-11-10T04:27:39.392Z,11.20
2018-11-10T04:30:11.601Z,11.20
2018-11-10T04:32:43.572Z,11.10
2018-11-10T04:35:15.544Z,10.85
2018-11-10T04:37:47.459Z,11.00
2018-11-10T04:40:19.370Z,11.65
2018-11-10T04:42:51.284Z,10.10
2018-11-10T04:45:23.188Z,11.20
2018-11-10T04:47:55.159Z,11.25
2018-11-10T04:50:27.136Z,10.15
2018-11-10T04:52:59.035Z,10.78
2018-11-10T04:55:31.005Z,10.60
2018-11-10T04:58:02.961Z,10.53
2018-11-10T05:00:34.922Z,10.60
2018-11-10T05:03:06.874Z,11.40
2018-11-10T05:05:38.774Z,11.70
2018-11-10T05:08:10.750Z,11.63
2018-11-10T05:10:42.660Z,10.03
2018-11-10T05:13:14.655Z,10.30
2018-11-10T05:15:46.621Z,11.60
2018-11-10T05:18:18.593Z,11.90
2018-11-10T05:20:50.578Z,11.22
2018-11-10T05:23:22.502Z,11.48
2018-11-10T05:25:54.449Z,10.93
2018-11-10T05:28:26.370Z,12.07
2018-11-10T05:30:58.341Z,11.35
2018-11-10T05:33:30.233Z,11.57
2018-11-10T05:37:31.644Z,11.45
2018-11-10T05:40:04.145Z,10.93
2018-11-10T05:42:36.064Z,12.37
2018-11-10T05:45:08.235Z,12.45
2018-11-10T05:47:40.193Z,11.30
2018-11-10T05:50:12.132Z,12.30
2018-11-10T05:52:44.093Z,12.45
2018-11-10T05:55:16.093Z,12.18
2018-11-10T05:57:48.021Z,13.18
2018-11-10T06:00:19.949Z,11.48
2018-11-10T06:02:51.904Z,13.03
2018-11-10T06:05:23.860Z,11.88
2018-11-10T06:07:55.815Z,11.80
2018-11-10T06:10:27.823Z,11.35
2018-11-10T06:12:59.719Z,13.03
2018-11-10T06:15:31.625Z,11.35
2018-11-10T06:18:03.635Z,10.70
2018-11-10T06:20:35.730Z,10.98
2018-11-10T06:23:07.642Z,9.70
2018-11-10T06:25:39.572Z,9.95
2018-11-10T06:28:11.518Z,10.38
2018-11-10T06:30:43.454Z,8.70
2018-11-10T06:33:15.478Z,9.68
2018-11-10T06:35:47.539Z,9.18
2018-11-10T06:38:19.528Z,8.28
2018-11-10T06:40:51.480Z,9.70
2018-11-10T06:43:23.424Z,9.10
2018-11-10T06:45:55.403Z,9.00
2018-11-10T06:48:27.307Z,9.58
2018-11-10T06:50:59.313Z,7.35
2018-11-10T06:53:31.233Z,7.70
2018-11-10T06:56:03.185Z,7.20
2018-11-10T06:58:35.182Z,8.43
2018-11-10T07:01:07.121Z,7.10
2018-11-10T07:03:39.007Z,8.15
2018-11-10T07:06:10.946Z,8.00
2018-11-10T07:08:42.840Z,7.15
2018-11-10T07:11:14.852Z,7.40
2018-11-10T07:13:46.728Z,6.30
2018-11-10T07:16:18.672Z,6.12
2018-11-10T07:18:50.658Z,5.75
2018-11-10T07:21:22.611Z,5.50
2018-11-10T07:23:54.538Z,5.40
2018-11-10T07:26:26.577Z,6.83
2018-11-10T07:28:58.561Z,6.37
2018-11-10T07:31:30.478Z,7.33
2018-11-10T07:34:02.469Z,6.97
2018-11-10T07:36:34.398Z,8.03
2018-11-10T07:39:07.503Z,7.47
2018-11-10T07:41:39.840Z,8.25
2018-11-10T07:44:11.761Z,8.87
2018-11-10T07:46:43.730Z,7.47
2018-11-10T07:49:15.709Z,8.23
2018-11-10T07:51:47.638Z,9.80
2018-11-10T07:54:19.639Z,7.20
2018-11-10T07:56:51.567Z,7.17
2018-11-10T07:59:23.493Z,6.47
2018-11-10T08:01:55.422Z,7.87
2018-11-10T08:04:27.540Z,7.47
2018-11-10T08:06:59.400Z,7.43
2018-11-10T08:09:31.401Z,7.80
2018-11-10T08:12:03.442Z,7.40
2018-11-10T08:14:35.373Z,7.62
2018-11-10T08:17:07.287Z,6.77
2018-11-10T08:19:39.358Z,7.13
2018-11-10T08:22:11.422Z,7.20
2018-11-10T08:24:43.345Z,7.20
2018-11-10T08:27:15.345Z,6.00
2018-11-10T08:29:47.249Z,7.45
2018-11-10T08:32:19.207Z,7.33
2018-11-10T08:34:51.134Z,6.90
2018-11-10T08:37:23.078Z,6.83
2018-11-10T08:39:55.019Z,7.97
2018-11-10T08:42:26.986Z,6.12
2018-11-10T08:44:58.969Z,7.70
2018-11-10T08:47:30.924Z,7.22
2018-11-10T08:50:03.219Z,6.62
2018-11-10T08:52:35.331Z,8.10
2018-11-10T08:55:07.699Z,7.47
2018-11-10T08:57:40.243Z,8.30
2018-11-10T09:00:13.217Z,8.57
2018-11-10T09:02:45.360Z,9.33
2018-11-10T09:05:17.436Z,8.53
2018-11-10T09:07:49.375Z,8.45
2018-11-10T09:10:21.386Z,6.75
2018-11-10T09:12:53.450Z,10.27
2018-11-10T09:15:25.413Z,8.80
2018-11-10T09:17:57.400Z,9.65
2018-11-10T09:20:29.318Z,9.80
2018-11-10T09:23:01.193Z,8.00
2018-11-10T09:25:33.251Z,10.20
2018-11-10T09:28:05.220Z,10.05
2018-11-10T09:30:37.248Z,11.60
2018-11-10T09:33:09.242Z,10.82
2018-11-10T09:35:41.283Z,11.53
2018-11-10T09:38:13.228Z,9.85
2018-11-10T09:40:45.156Z,10.53
2018-11-10T09:43:17.105Z,10.63
2018-11-10T09:45:49.124Z,9.93
2018-11-10T09:48:21.130Z,9.70
2018-11-10T09:50:53.175Z,9.25
2018-11-10T09:53:25.101Z,9.85
2018-11-10T09:55:57.061Z,9.23
